Time;durP1;ratioP1;P1;durP2;ratioP2;P2;SDS_P1;SDS_P2;PMS_P1;PMS_P2;Temp;Humidity;BMP_temperature;BMP_pressure;BME280_temperature;BME280_humidity;BME280_pressure;Samples;Min_cycle;Max_cycle;Signal;HPM_P1;HPM_P2
2023/06/21 00:00:15;;;;;;;4.05;2.58;;;24.10;52.30;;;;;;5007501;28;20055;-52
2023/06/21 00:02:44;;;;;;;4.53;2.45;;;24.00;52.30;;;;;;5003511;28;20053;-52
2023/06/21 00:05:11;;;;;;;4.25;2.60;;;24.00;52.40;;;;;;5009360;28;20060;-54
2023/06/21 00:07:40;;;;;;;4.45;2.75;;;24.00;52.40;;;;;;5010147;28;20064;-53
2023/06/21 00:10:08;;;;;;;3.78;2.80;;;24.00;52.50;;;;;;5004897;28;20053;-56
2023/06/21 00:12:35;;;;;;;3.72;2.55;;;23.90;52.50;;;;;;5013019;28;20405;-50
2023/06/21 00:15:04;;;;;;;3.63;2.30;;;23.90;52.60;;;;;;5011137;28;20049;-55
2023/06/21 00:17:31;;;;;;;4.53;2.42;;;23.90;52.70;;;;;;5013343;28;20045;-51
2023/06/21 00:20:00;;;;;;;4.15;2.60;;;23.80;52.60;;;;;;5014176;28;20061;-52
2023/06/21 00:22:29;;;;;;;3.00;2.47;;;23.80;52.70;;;;;;5008985;28;20041;-51
2023/06/21 00:24:57;;;;;;;3.35;2.60;;;23.80;52.80;;;;;;5011036;28;20481;-47
2023/06/21 00:27:25;;;;;;;4.30;2.75;;;23.80;52.80;;;;;;5008093;28;20060;-50
2023/06/21 00:29:52;;;;;;;3.45;2.40;;;23.70;52.70;;;;;;5010989;28;20060;-50
2023/06/21 00:32:19;;;;;;;3.17;2.30;;;23.70;52.80;;;;;;5004419;28;20512;-52
2023/06/21 00:34:47;;;;;;;3.33;2.50;;;23.70;52.90;;;;;;5012057;28;20045;-50
2023/06/21 00:37:16;;;;;;;6.28;2.65;;;23.70;52.90;;;;;;5011323;28;20065;-49
2023/06/21 00:39:43;;;;;;;5.45;3.05;;;23.70;53.00;;;;;;5007089;28;20065;-53
2023/06/21 00:42:10;;;;;;;3.20;2.58;;;23.60;53.40;;;;;;5016560;28;20053;-51
2023/06/21 00:44:38;;;;;;;4.07;2.67;;;23.60;52.90;;;;;;5016403;28;20057;-52
2023/06/21 00:47:05;;;;;;;4.60;2.65;;;23.60;53.00;;;;;;5018751;28;20383;-50
2023/06/21 00:49:33;;;;;;;4.70;2.70;;;23.60;53.10;;;;;;5015495;28;20065;-49
2023/06/21 00:52:00;;;;;;;3.25;2.50;;;23.50;53.00;;;;;;5010653;28;20060;-57
2023/06/21 00:54:32;;;;;;;3.60;2.78;;;23.50;53.10;;;;;;5012499;28;20049;-56
2023/06/21 00:57:00;;;;;;;4.07;2.67;;;23.50;53.20;;;;;;5012685;28;20525;-56
2023/06/21 00:59:28;;;;;;;4.55;3.20;;;23.50;53.20;;;;;;5017360;28;20405;-57
2023/06/21 01:01:56;;;;;;;5.72;2.80;;;23.40;53.10;;;;;;5022341;23;20126;-52
2023/06/21 01:04:24;;;;;;;3.60;2.92;;;23.40;53.20;;;;;;4998526;28;20050;-58
2023/06/21 01:06:59;;;;;;;5.03;2.80;;;23.40;53.20;;;;;;4996763;28;20053;-58
2023/06/21 01:09:37;;;;;;;4.70;3.17;;;23.30;53.30;;;;;;4999468;28;20046;-55
2023/06/21 01:12:10;;;;;;;4.38;3.10;;;23.30;53.40;;;;;;4998465;28;20075;-53
2023/06/21 01:14:54;;;;;;;5.03;3.08;;;23.30;53.40;;;;;;4998594;28;20054;-52
2023/06/21 01:17:22;;;;;;;3.53;2.95;;;23.30;53.50;;;;;;5001314;28;20125;-53
2023/06/21 01:19:51;;;;;;;4.13;3.15;;;23.20;53.40;;;;;;5001238;28;20156;-55
2023/06/21 01:22:37;;;;;;;4.43;2.80;;;23.20;53.50;;;;;;4995339;28;20050;-53
2023/06/21 01:25:28;;;;;;;8.65;3.20;;;23.20;53.60;;;;;;4995754;28;20050;-54
2023/06/21 01:28:12;;;;;;;7.32;2.88;;;23.10;53.60;;;;;;4999222;28;20057;-58
2023/06/21 01:30:45;;;;;;;4.95;2.88;;;23.10;53.60;;;;;;4995534;28;20060;-57
2023/06/21 01:33:13;;;;;;;3.83;2.75;;;23.10;53.60;;;;;;4998743;28;20061;-54
2023/06/21 01:35:41;;;;;;;3.97;2.95;;;23.00;53.50;;;;;;4997563;28;20050;-57
2023/06/21 01:38:08;;;;;;;5.03;3.10;;;23.00;53.50;;;;;;4995941;28;20054;-54
2023/06/21 01:40:37;;;;;;;4.68;3.08;;;23.00;53.60;;;;;;4997937;28;20073;-54
2023/06/21 01:43:05;;;;;;;4.05;3.17;;;22.90;53.70;;;;;;4999059;28;20050;-54
2023/06/21 01:45:33;;;;;;;3.78;3.13;;;22.90;53.70;;;;;;4999578;28;20064;-54
2023/06/21 01:48:03;;;;;;;6.82;3.15;;;22.90;53.80;;;;;;4997637;28;20049;-55
2023/06/21 01:50:31;;;;;;;3.45;2.88;;;22.80;53.80;;;;;;4999390;28;20058;-55
2023/06/21 01:53:00;;;;;;;4.30;2.97;;;22.80;53.80;;;;;;4996851;28;20489;-56
2023/06/21 01:55:28;;;;;;;3.78;3.13;;;22.80;53.80;;;;;;4995312;28;20050;-56
2023/06/21 01:57:56;;;;;;;4.88;3.22;;;22.80;53.90;;;;;;5000315;28;20058;-55
2023/06/21 02:00:26;;;;;;;4.07;3.00;;;22.70;54.00;;;;;;4997793;28;20053;-56
2023/06/21 02:02:56;;;;;;;4.32;3.20;;;22.70;54.10;;;;;;4996851;28;20663;-55
2023/06/21 02:05:27;;;;;;;4.00;3.40;;;22.70;54.10;;;;;;4998931;28;20045;-54
2023/06/21 02:07:55;;;;;;;6.63;3.55;;;22.70;54.10;;;;;;4994564;28;20061;-54
2023/06/21 02:10:22;;;;;;;5.60;3.40;;;22.60;54.20;;;;;;4995594;28;20057;-54
2023/06/21 02:12:52;;;;;;;6.00;3.33;;;22.60;54.10;;;;;;5000467;28;20053;-52
2023/06/21 02:15:19;;;;;;;4.55;3.63;;;22.60;54.20;;;;;;4998887;28;20054;-50
2023/06/21 02:17:49;;;;;;;5.68;3.13;;;22.60;54.30;;;;;;4997830;28;20065;-50
2023/06/21 02:20:17;;;;;;;4.28;2.75;;;22.60;54.30;;;;;;4994107;28;20045;-57
2023/06/21 02:22:46;;;;;;;6.43;3.60;;;22.60;54.40;;;;;;4995445;28;20141;-54
2023/06/21 02:25:15;;;;;;;6.85;3.35;;;22.50;54.40;;;;;;4996799;28;20342;-54
2023/06/21 02:27:43;;;;;;;5.72;2.90;;;22.50;54.50;;;;;;4997941;28;20053;-57
2023/06/21 02:30:11;;;;;;;4.45;3.40;;;22.50;54.60;;;;;;4995759;28;20054;-50
2023/06/21 02:32:38;;;;;;;4.68;3.20;;;22.50;54.60;;;;;;4994875;28;20054;-54
2023/06/21 02:35:06;;;;;;;5.80;3.33;;;22.50;54.70;;;;;;4996907;28;20060;-53
2023/06/21 02:37:34;;;;;;;4.45;3.53;;;22.40;54.70;;;;;;4994978;28;20421;-57
2023/06/21 02:40:09;;;;;;;6.68;3.17;;;22.40;54.80;;;;;;4996823;28;20050;-57
2023/06/21 02:42:37;;;;;;;5.93;3.03;;;22.40;54.80;;;;;;4998793;28;20057;-50
2023/06/21 02:45:05;;;;;;;5.57;3.55;;;22.40;54.80;;;;;;4993957;28;20057;-54
2023/06/21 02:47:33;;;;;;;3.80;3.17;;;22.40;54.90;;;;;;4996355;28;20588;-56
2023/06/21 02:50:00;;;;;;;8.68;3.22;;;22.40;54.90;;;;;;4997663;28;20071;-59
2023/06/21 02:52:27;;;;;;;6.70;3.47;;;22.40;54.90;;;;;;4997533;28;20053;-55
2023/06/21 02:54:54;;;;;;;4.85;3.25;;;22.30;55.00;;;;;;4996914;28;20049;-52
2023/06/21 02:57:23;;;;;;;5.40;3.15;;;22.30;54.90;;;;;;4994219;28;20054;-53
2023/06/21 02:59:51;;;;;;;4.40;3.15;;;22.30;54.90;;;;;;4992251;28;20050;-56
2023/06/21 03:02:18;;;;;;;5.40;3.60;;;22.30;55.00;;;;;;4993966;28;20471;-54
2023/06/21 03:04:45;;;;;;;5.20;3.65;;;22.30;55.00;;;;;;4996899;28;20042;-55
2023/06/21 03:07:13;;;;;;;5.20;3.88;;;22.20;55.10;;;;;;4990007;28;20478;-56
2023/06/21 03:09:40;;;;;;;5.15;3.35;;;22.20;55.10;;;;;;4996111;28;20065;-53
2023/06/21 03:12:08;;;;;;;5.05;3.47;;;22.20;55.20;;;;;;4995171;28;21160;-54
2023/06/21 03:14:38;;;;;;;6.07;3.10;;;22.20;55.30;;;;;;4995274;28;20053;-54
2023/06/21 03:17:05;;;;;;;5.32;3.42;;;22.20;55.40;;;;;;4995888;28;20511;-57
2023/06/21 03:19:33;;;;;;;11.80;6.32;;;22.20;55.40;;;;;;4996191;28;20532;-56
2023/06/21 03:22:00;;;;;;;11.35;4.85;;;22.20;55.40;;;;;;4994916;28;20053;-60
2023/06/21 03:24:32;;;;;;;5.75;4.15;;;22.20;55.40;;;;;;4999947;28;20050;-59
2023/06/21 03:26:59;;;;;;;4.90;3.45;;;22.10;55.30;;;;;;4998850;28;20097;-59
2023/06/21 03:29:27;;;;;;;5.53;3.67;;;22.10;55.30;;;;;;4999817;28;20061;-59
2023/06/21 03:31:55;;;;;;;5.35;3.50;;;22.10;55.40;;;;;;4998488;28;20400;-58
2023/06/21 03:34:22;;;;;;;5.05;3.35;;;22.10;55.50;;;;;;4997219;28;20062;-59
2023/06/21 03:36:53;;;;;;;7.15;3.97;;;22.10;55.50;;;;;;4995613;28;20580;-59
2023/06/21 03:39:20;;;;;;;5.10;3.88;;;22.10;55.60;;;;;;4996765;28;20058;-59
2023/06/21 03:41:47;;;;;;;5.43;3.42;;;22.00;55.60;;;;;;4994620;28;20517;-59
2023/06/21 03:44:15;;;;;;;4.88;3.38;;;22.10;55.60;;;;;;4998434;28;20056;-59
2023/06/21 03:46:42;;;;;;;10.40;3.83;;;22.00;55.70;;;;;;4994711;28;20054;-59
2023/06/21 03:49:11;;;;;;;6.95;3.58;;;22.00;55.70;;;;;;4995658;28;20054;-59
2023/06/21 03:51:39;;;;;;;6.63;4.70;;;22.00;55.80;;;;;;4994336;28;21458;-59
2023/06/21 03:54:06;;;;;;;4.57;3.55;;;22.00;55.80;;;;;;4995130;28;20057;-59
2023/06/21 03:56:34;;;;;;;6.07;3.45;;;22.00;55.80;;;;;;4996821;28;20595;-59
2023/06/21 03:59:01;;;;;;;5.55;3.30;;;22.00;55.80;;;;;;4995812;28;20054;-59
2023/06/21 04:01:28;;;;;;;4.70;3.80;;;22.00;55.90;;;;;;4995938;28;20062;-58
2023/06/21 04:03:56;;;;;;;4.72;3.72;;;22.00;55.90;;;;;;4994990;28;20058;-59
2023/06/21 04:06:25;;;;;;;5.88;3.85;;;22.00;56.00;;;;;;4995698;28;20049;-59
2023/06/21 04:08:53;;;;;;;6.07;3.40;;;22.00;56.00;;;;;;4995198;28;20054;-59
2023/06/21 04:11:21;;;;;;;4.93;3.70;;;22.00;56.00;;;;;;4997366;28;20065;-59
2023/06/21 04:13:48;;;;;;;4.50;3.38;;;22.00;56.10;;;;;;4993857;28;20046;-59
2023/06/21 04:16:15;;;;;;;5.80;3.70;;;22.00;56.10;;;;;;4997163;28;20058;-59
2023/06/21 04:18:42;;;;;;;9.77;4.35;;;22.00;56.20;;;;;;4999469;28;20053;-59
2023/06/21 04:21:10;;;;;;;13.48;7.40;;;22.00;56.30;;;;;;4997582;28;20050;-59
2023/06/21 04:23:38;;;;;;;8.63;5.25;;;22.00;56.30;;;;;;4999180;28;20054;-60
2023/06/21 04:26:07;;;;;;;9.57;4.65;;;22.00;56.30;;;;;;5000196;28;20073;-58
2023/06/21 04:28:34;;;;;;;4.60;3.45;;;22.00;56.30;;;;;;5000447;28;20061;-58
2023/06/21 04:31:02;;;;;;;5.43;3.55;;;22.00;56.40;;;;;;4998647;28;20049;-56
2023/06/21 04:33:29;;;;;;;7.60;4.15;;;22.00;56.50;;;;;;4999069;28;20054;-54
2023/06/21 04:35:57;;;;;;;4.25;3.30;;;22.00;56.50;;;;;;5000854;28;21286;-52
2023/06/21 04:38:24;;;;;;;7.07;3.97;;;22.10;56.60;;;;;;4993309;28;20054;-55
2023/06/21 04:40:53;;;;;;;6.35;3.78;;;22.10;56.60;;;;;;4999073;28;20084;-54
2023/06/21 04:43:25;;;;;;;4.45;3.70;;;22.10;56.60;;;;;;5000868;28;20064;-50
2023/06/21 04:45:52;;;;;;;4.28;3.55;;;22.10;56.60;;;;;;4998007;28;20049;-56
2023/06/21 04:48:19;;;;;;;8.20;3.70;;;22.10;56.60;;;;;;4998847;28;20061;-58
2023/06/21 04:50:46;;;;;;;5.50;3.45;;;22.20;56.70;;;;;;4997357;28;20054;-56
2023/06/21 04:53:13;;;;;;;7.40;3.92;;;22.10;56.70;;;;;;4996110;28;20528;-55
2023/06/21 04:55:42;;;;;;;5.28;4.00;;;22.10;56.70;;;;;;4998177;28;20060;-53
2023/06/21 04:58:12;;;;;;;5.75;3.75;;;22.10;56.70;;;;;;5001386;28;20060;-52
2023/06/21 05:00:39;;;;;;;5.88;3.70;;;22.20;56.80;;;;;;4999136;28;20057;-56
2023/06/21 05:03:07;;;;;;;6.07;3.50;;;22.20;56.80;;;;;;4997910;28;20069;-56
2023/06/21 05:05:34;;;;;;;6.50;3.95;;;22.20;56.80;;;;;;4996893;28;20142;-51
2023/06/21 05:08:01;;;;;;;4.35;3.60;;;22.20;56.90;;;;;;4995878;28;20053;-52
2023/06/21 05:10:28;;;;;;;5.18;3.63;;;22.20;56.90;;;;;;4995240;28;20073;-55
2023/06/21 05:12:55;;;;;;;6.63;4.00;;;22.30;57.20;;;;;;4996825;28;20584;-52
2023/06/21 05:15:24;;;;;;;6.63;3.75;;;22.30;57.00;;;;;;4997667;28;20069;-54
2023/06/21 05:17:51;;;;;;;5.63;4.10;;;22.30;57.20;;;;;;4995589;28;20062;-53
2023/06/21 05:20:20;;;;;;;5.22;4.00;;;22.30;57.20;;;;;;4996495;28;20050;-51
2023/06/21 05:22:48;;;;;;;9.35;4.35;;;22.40;57.30;;;;;;4995767;28;20053;-51
2023/06/21 05:25:16;;;;;;;9.52;4.18;;;22.40;57.30;;;;;;4997391;28;20054;-56
2023/06/21 05:27:43;;;;;;;5.53;3.90;;;22.40;57.30;;;;;;4998145;28;20395;-51
2023/06/21 05:30:10;;;;;;;6.82;3.88;;;22.50;57.80;;;;;;4993828;28;20046;-51
2023/06/21 05:32:39;;;;;;;7.65;4.03;;;22.50;57.40;;;;;;4997515;28;20053;-52
2023/06/21 05:35:07;;;;;;;7.05;3.97;;;22.60;57.40;;;;;;4996406;28;20054;-49
2023/06/21 05:37:34;;;;;;;7.68;4.28;;;22.60;57.40;;;;;;4997200;28;20065;-55
2023/06/21 05:40:02;;;;;;;5.43;3.78;;;22.60;57.90;;;;;;4995716;28;20054;-51
2023/06/21 05:42:30;;;;;;;5.47;3.90;;;22.70;57.40;;;;;;4997725;28;21151;-59
2023/06/21 05:44:57;;;;;;;5.60;4.10;;;22.70;57.50;;;;;;4998517;28;20050;-59
2023/06/21 05:47:24;;;;;;;5.25;4.53;;;22.70;57.50;;;;;;4997650;28;20070;-59
2023/06/21 05:49:53;;;;;;;5.95;4.38;;;22.70;57.60;;;;;;4996571;28;20061;-57
2023/06/21 05:52:20;;;;;;;5.75;4.40;;;22.80;57.70;;;;;;4999026;28;20422;-59
2023/06/21 05:54:47;;;;;;;4.68;3.78;;;22.80;57.70;;;;;;4997583;28;20064;-59
2023/06/21 05:57:15;;;;;;;7.53;4.65;;;22.80;57.80;;;;;;4999503;28;20408;-58
2023/06/21 05:59:43;;;;;;;7.00;4.65;;;22.90;57.90;;;;;;4992327;28;20347;-58
2023/06/21 06:02:10;;;;;;;7.18;5.03;;;22.90;57.90;;;;;;4989922;28;20057;-59
2023/06/21 06:04:38;;;;;;;5.95;4.82;;;23.00;58.10;;;;;;4998800;28;20061;-57
2023/06/21 06:07:07;;;;;;;10.02;6.53;;;23.00;58.10;;;;;;4998668;28;20401;-58
2023/06/21 06:09:35;;;;;;;7.65;5.40;;;23.10;58.20;;;;;;4994606;28;20061;-59
2023/06/21 06:12:02;;;;;;;13.90;6.90;;;23.10;58.10;;;;;;4995492;28;20058;-58
2023/06/21 06:14:29;;;;;;;10.85;6.50;;;23.20;58.10;;;;;;4995192;28;20058;-59
2023/06/21 06:16:56;;;;;;;6.68;4.93;;;23.20;58.00;;;;;;4996667;28;20046;-57
2023/06/21 06:19:24;;;;;;;7.20;5.40;;;23.30;58.00;;;;;;4995901;28;20053;-59
2023/06/21 06:21:51;;;;;;;7.80;5.47;;;23.40;58.00;;;;;;4997128;28;20145;-58
2023/06/21 06:24:20;;;;;;;6.55;4.88;;;23.40;57.80;;;;;;4994367;28;20417;-59
2023/06/21 06:26:47;;;;;;;10.55;5.82;;;23.40;57.70;;;;;;4994466;28;20049;-58
2023/06/21 06:29:14;;;;;;;8.43;5.43;;;23.50;57.70;;;;;;4998884;28;20517;-59
2023/06/21 06:31:41;;;;;;;6.93;4.97;;;23.50;57.60;;;;;;5001621;28;20057;-59
2023/06/21 06:34:09;;;;;;;10.45;4.90;;;23.50;57.60;;;;;;5001241;28;20066;-59
2023/06/21 06:36:36;;;;;;;7.82;4.43;;;23.60;57.60;;;;;;4999678;28;20076;-59
2023/06/21 06:39:03;;;;;;;7.18;5.05;;;23.60;57.60;;;;;;4992783;28;20058;-59
2023/06/21 06:41:32;;;;;;;6.03;4.90;;;23.60;57.60;;;;;;4992319;28;20053;-58
2023/06/21 06:43:59;;;;;;;6.13;4.97;;;23.70;57.80;;;;;;4999795;28;20050;-59
2023/06/21 06:46:27;;;;;;;10.80;5.32;;;23.70;57.80;;;;;;4994121;28;20054;-58
2023/06/21 06:48:54;;;;;;;8.00;5.10;;;23.70;57.80;;;;;;4998401;28;20754;-59
2023/06/21 06:51:22;;;;;;;8.82;5.30;;;23.70;57.80;;;;;;4998028;28;20050;-51
2023/06/21 06:53:49;;;;;;;8.02;5.60;;;23.80;57.90;;;;;;4993834;28;20073;-54
2023/06/21 06:56:16;;;;;;;9.90;5.32;;;23.80;57.90;;;;;;4996286;28;20485;-53
2023/06/21 06:58:45;;;;;;;9.13;6.20;;;23.90;57.80;;;;;;5000421;28;20497;-54
2023/06/21 07:01:13;;;;;;;8.48;5.53;;;23.90;57.90;;;;;;4992770;28;20058;-53
2023/06/21 07:03:40;;;;;;;8.57;5.32;;;24.00;57.80;;;;;;4989803;28;20073;-53
2023/06/21 07:06:08;;;;;;;12.13;5.85;;;24.00;57.80;;;;;;4992798;28;20062;-53
2023/06/21 07:08:35;;;;;;;8.13;5.43;;;24.00;57.70;;;;;;4995228;28;20061;-51
2023/06/21 07:11:02;;;;;;;7.63;4.85;;;24.10;57.60;;;;;;4996773;28;20493;-53
2023/06/21 07:13:29;;;;;;;7.18;5.32;;;24.20;57.60;;;;;;4996197;28;20049;-50
2023/06/21 07:15:59;;;;;;;9.85;6.03;;;24.20;57.40;;;;;;4994622;28;20049;-59
2023/06/21 07:18:26;;;;;;;7.00;5.15;;;24.30;57.30;;;;;;4996018;28;20073;-56
2023/06/21 07:20:55;;;;;;;9.10;5.57;;;24.30;57.10;;;;;;4989232;28;20058;-58
2023/06/21 07:23:22;;;;;;;5.57;4.85;;;24.40;57.10;;;;;;4987121;28;20502;-52
2023/06/21 07:25:50;;;;;;;12.23;6.07;;;24.40;57.00;;;;;;4993924;28;20053;-53
2023/06/21 07:28:17;;;;;;;8.07;6.00;;;24.40;57.10;;;;;;4995211;28;20054;-49
2023/06/21 07:30:44;;;;;;;8.45;5.38;;;24.50;57.00;;;;;;4994096;28;20508;-51
2023/06/21 07:33:13;;;;;;;6.53;5.32;;;24.60;57.00;;;;;;4997156;28;20414;-53
2023/06/21 07:35:40;;;;;;;6.53;5.55;;;24.60;57.10;;;;;;4995865;28;20054;-52
2023/06/21 07:38:08;;;;;;;7.93;5.78;;;24.70;57.10;;;;;;4993611;28;20504;-55
2023/06/21 07:40:35;;;;;;;8.68;5.20;;;24.70;56.90;;;;;;4994713;28;20497;-53
2023/06/21 07:43:05;;;;;;;9.07;6.60;;;24.80;57.10;;;;;;4993904;28;20054;-54
2023/06/21 07:45:32;;;;;;;7.53;5.60;;;24.80;56.80;;;;;;4994240;28;20509;-53
2023/06/21 07:47:59;;;;;;;7.57;5.40;;;24.90;56.60;;;;;;4997561;28;20164;-55
2023/06/21 07:50:28;;;;;;;6.22;4.80;;;24.90;56.40;;;;;;4998785;28;20489;-55
2023/06/21 07:52:55;;;;;;;6.47;5.15;;;25.00;56.10;;;;;;4999224;28;20061;-59
2023/06/21 07:55:22;;;;;;;6.80;4.80;;;25.00;55.80;;;;;;4999329;28;20492;-52
2023/06/21 07:57:50;;;;;;;6.07;4.82;;;25.10;55.60;;;;;;5001829;28;20054;-53
2023/06/21 08:00:17;;;;;;;5.45;4.90;;;25.10;55.40;;;;;;4998171;28;20062;-58
2023/06/21 08:02:45;;;;;;;8.43;5.57;;;25.10;55.20;;;;;;4995806;28;20050;-52
2023/06/21 08:05:13;;;;;;;9.68;4.88;;;25.20;54.90;;;;;;4998025;28;20057;-57
2023/06/21 08:07:42;;;;;;;7.30;4.93;;;25.20;54.80;;;;;;4992345;28;20508;-55
2023/06/21 08:10:10;;;;;;;5.97;4.70;;;25.30;54.50;;;;;;4998824;28;20053;-57
2023/06/21 08:12:37;;;;;;;5.35;4.45;;;25.30;53.80;;;;;;4997090;28;20405;-51
2023/06/21 08:15:08;;;;;;;6.05;4.55;;;25.30;54.00;;;;;;5000288;28;20055;-54
2023/06/21 08:17:35;;;;;;;5.55;4.38;;;25.40;54.20;;;;;;4998152;28;20418;-56
2023/06/21 08:20:04;;;;;;;7.75;5.30;;;25.40;54.00;;;;;;4997414;28;20064;-57
2023/06/21 08:22:32;;;;;;;10.00;6.55;;;25.50;54.00;;;;;;4999608;28;20053;-49
2023/06/21 08:25:01;;;;;;;8.00;6.38;;;25.50;53.40;;;;;;4999089;28;20062;-53
2023/06/21 08:27:29;;;;;;;6.63;5.50;;;25.50;52.80;;;;;;5000024;28;20489;-57
2023/06/21 08:29:56;;;;;;;9.07;6.85;;;25.60;53.10;;;;;;4995203;28;20065;-56
2023/06/21 08:32:24;;;;;;;8.13;6.22;;;25.60;52.90;;;;;;4999578;28;20062;-54
2023/06/21 08:34:52;;;;;;;13.30;6.38;;;25.60;52.80;;;;;;4997188;28;20058;-55
2023/06/21 08:37:22;;;;;;;8.10;6.60;;;25.60;52.80;;;;;;4996487;28;20526;-57
2023/06/21 08:39:49;;;;;;;7.82;5.78;;;25.60;52.40;;;;;;5000579;28;20053;-60
2023/06/21 08:42:18;;;;;;;9.00;5.75;;;25.60;52.30;;;;;;4994385;28;20381;-55
2023/06/21 08:44:45;;;;;;;7.03;5.65;;;25.60;52.00;;;;;;4995452;28;20872;-52
2023/06/21 08:47:14;;;;;;;6.80;5.32;;;25.60;51.90;;;;;;4999485;28;20079;-54
2023/06/21 08:49:44;;;;;;;7.82;5.22;;;25.70;51.90;;;;;;4994352;28;20046;-58
2023/06/21 08:52:18;;;;;;;7.47;5.00;;;25.70;52.10;;;;;;4998277;28;20390;-59
2023/06/21 08:54:50;;;;;;;7.68;5.43;;;25.80;52.20;;;;;;4996924;28;20402;-57
2023/06/21 08:57:23;;;;;;;8.23;6.40;;;25.90;52.00;;;;;;4996382;28;20068;-60
2023/06/21 08:59:54;;;;;;;7.72;5.40;;;26.00;51.50;;;;;;4998223;28;20057;-56
2023/06/21 09:02:31;;;;;;;12.85;6.25;;;26.00;51.90;;;;;;4998547;28;20061;-58
2023/06/21 09:05:03;;;;;;;8.93;6.20;;;26.00;51.60;;;;;;5002052;28;20062;-56
2023/06/21 09:07:31;;;;;;;9.57;6.50;;;26.10;51.40;;;;;;4996499;28;20058;-54
2023/06/21 09:10:00;;;;;;;9.35;6.55;;;26.00;50.90;;;;;;5001384;28;20053;-49
2023/06/21 09:12:31;;;;;;;7.25;5.95;;;26.00;51.00;;;;;;5003415;28;20054;-61
2023/06/21 09:14:59;;;;;;;6.32;4.95;;;26.00;51.00;;;;;;5001062;28;20046;-61
2023/06/21 09:17:27;;;;;;;6.97;5.10;;;26.00;51.20;;;;;;4996902;28;20050;-60
2023/06/21 09:19:56;;;;;;;6.97;5.20;;;26.00;51.30;;;;;;4998802;28;20057;-60
2023/06/21 09:22:25;;;;;;;6.10;5.18;;;26.10;51.40;;;;;;4992905;28;20581;-61
2023/06/21 09:24:53;;;;;;;6.07;5.18;;;26.10;51.30;;;;;;4995130;28;20053;-62
2023/06/21 09:27:20;;;;;;;6.97;5.57;;;26.20;51.20;;;;;;4996506;28;20061;-61
2023/06/21 09:29:50;;;;;;;5.97;5.38;;;26.20;50.90;;;;;;4997987;28;20532;-61
2023/06/21 09:32:17;;;;;;;6.80;4.70;;;26.20;50.90;;;;;;4994854;28;20054;-60
2023/06/21 09:34:45;;;;;;;7.40;5.57;;;26.30;51.10;;;;;;4994072;28;20489;-61
2023/06/21 09:37:31;;;;;;;6.30;4.88;;;26.30;51.10;;;;;;4992098;28;20058;-61
2023/06/21 09:39:58;;;;;;;5.80;5.00;;;26.40;50.90;;;;;;4997335;28;20057;-61
2023/06/21 09:42:26;;;;;;;10.05;5.65;;;26.50;51.10;;;;;;4998141;28;20486;-61
2023/06/21 09:44:55;;;;;;;16.48;5.82;;;26.50;51.30;;;;;;4999380;28;20068;-60
2023/06/21 09:47:22;;;;;;;7.68;5.53;;;26.60;51.40;;;;;;4998391;28;20397;-60
2023/06/21 09:49:50;;;;;;;8.30;5.68;;;26.70;51.20;;;;;;4996265;28;20058;-61
2023/06/21 09:52:21;;;;;;;6.28;5.13;;;26.80;51.00;;;;;;4994746;28;20065;-61
2023/06/21 09:54:50;;;;;;;5.72;5.07;;;26.80;50.80;;;;;;4997085;28;20506;-62
2023/06/21 09:57:17;;;;;;;7.03;5.55;;;26.90;50.60;;;;;;4995158;28;20046;-60
2023/06/21 09:59:48;;;;;;;5.82;4.88;;;27.00;50.00;;;;;;4996245;28;20046;-61
2023/06/21 10:02:17;;;;;;;6.43;5.05;;;27.00;49.80;;;;;;4996643;28;20057;-61
2023/06/21 10:04:46;;;;;;;7.38;5.30;;;27.10;50.00;;;;;;4997224;28;20049;-60
2023/06/21 10:07:14;;;;;;;8.50;4.93;;;27.10;49.70;;;;;;4994444;28;20057;-60
2023/06/21 10:09:42;;;;;;;7.88;6.00;;;27.20;49.90;;;;;;4998553;28;20077;-59
2023/06/21 10:12:11;;;;;;;10.95;5.93;;;27.20;49.80;;;;;;4996737;28;20050;-61
2023/06/21 10:14:40;;;;;;;5.70;4.75;;;27.20;48.60;;;;;;4990960;28;20057;-61
2023/06/21 10:17:08;;;;;;;8.40;4.80;;;27.20;48.60;;;;;;4996950;28;20060;-61
2023/06/21 10:19:37;;;;;;;7.72;4.95;;;27.30;49.10;;;;;;4996776;28;20057;-61
2023/06/21 10:22:09;;;;;;;5.63;4.70;;;27.30;48.90;;;;;;4995962;28;20508;-57
2023/06/21 10:24:40;;;;;;;5.32;4.63;;;27.40;49.30;;;;;;4995036;28;20408;-58
2023/06/21 10:27:08;;;;;;;7.35;4.57;;;27.40;48.60;;;;;;4997446;28;20065;-59
2023/06/21 10:29:36;;;;;;;10.02;5.15;;;27.40;48.80;;;;;;4999502;28;20880;-58
2023/06/21 10:32:06;;;;;;;20.83;6.07;;;27.50;48.70;;;;;;4995820;28;20065;-56
2023/06/21 10:34:46;;;;;;;6.03;4.60;;;27.50;48.60;;;;;;4996616;28;20073;-58
2023/06/21 10:37:24;;;;;;;5.75;4.65;;;27.60;48.20;;;;;;4996947;28;20060;-59
2023/06/21 10:39:55;;;;;;;5.20;4.28;;;27.60;48.00;;;;;;4998276;28;20060;-57
2023/06/21 10:42:23;;;;;;;20.08;5.20;;;27.60;48.30;;;;;;4993494;28;20053;-57
2023/06/21 10:44:52;;;;;;;7.25;4.97;;;27.70;48.60;;;;;;4997050;28;20085;-51
2023/06/21 10:47:21;;;;;;;4.63;4.13;;;27.80;48.10;;;;;;4996152;28;20046;-60
2023/06/21 10:49:51;;;;;;;6.97;4.30;;;27.90;47.90;;;;;;4998665;28;20069;-57
2023/06/21 10:52:18;;;;;;;8.02;4.72;;;27.90;47.60;;;;;;4994516;28;20066;-59
2023/06/21 10:54:47;;;;;;;6.72;4.53;;;28.10;47.20;;;;;;4991928;28;20053;-58
2023/06/21 10:57:16;;;;;;;10.13;5.57;;;28.10;46.90;;;;;;4995111;28;20065;-59
2023/06/21 10:59:44;;;;;;;7.20;5.22;;;28.20;46.10;;;;;;4998879;28;20666;-57
2023/06/21 11:02:11;;;;;;;6.07;5.00;;;28.20;45.70;;;;;;4998762;28;20062;-60
2023/06/21 11:05:14;;;;;;;6.28;5.22;;;28.20;45.80;;;;;;4996380;28;20062;-58
2023/06/21 11:07:47;;;;;;;6.38;5.05;;;28.20;45.50;;;;;;4994250;28;20425;-54
2023/06/21 11:10:14;;;;;;;7.47;4.57;;;28.20;45.70;;;;;;4998309;28;20054;-56
2023/06/21 11:12:42;;;;;;;8.35;5.18;;;28.10;45.20;;;;;;4998792;28;20517;-58
2023/06/21 11:15:10;;;;;;;7.07;4.78;;;28.10;44.70;;;;;;4992355;28;20061;-55
2023/06/21 11:17:38;;;;;;;6.80;4.93;;;28.10;45.60;;;;;;4994138;28;20046;-57
2023/06/21 11:20:23;;;;;;;5.90;4.57;;;28.00;45.40;;;;;;4997432;28;20050;-57
2023/06/21 11:22:58;;;;;;;6.95;5.13;;;28.00;45.40;;;;;;4992750;28;20064;-54
2023/06/21 11:25:26;;;;;;;5.20;4.53;;;28.10;46.00;;;;;;4997943;28;20065;-58
2023/06/21 11:28:21;;;;;;;7.47;4.32;;;28.10;45.60;;;;;;5000922;28;20821;-56
2023/06/21 11:31:06;;;;;;;6.55;4.22;;;28.20;45.70;;;;;;4992333;28;20516;-57
2023/06/21 11:33:44;;;;;;;;;;;28.20;45.50;;;;;;4997843;28;20057;-61
2023/06/21 11:36:12;;;;;;;4.65;4.10;;;28.30;45.90;;;;;;4996728;28;20392;-62
2023/06/21 11:38:50;;;;;;;5.10;4.20;;;28.40;45.60;;;;;;4996354;28;20050;-61
2023/06/21 11:41:53;;;;;;;5.75;4.45;;;28.50;45.70;;;;;;4999247;28;20045;-62
2023/06/21 11:44:22;;;;;;;4.35;3.95;;;28.50;45.20;;;;;;4998435;28;20054;-61
2023/06/21 11:46:50;;;;;;;7.53;5.15;;;28.60;45.20;;;;;;4998575;28;20069;-61
2023/06/21 11:49:18;;;;;;;6.10;4.68;;;28.60;44.30;;;;;;4995208;28;20047;-63
2023/06/21 11:52:01;;;;;;;5.75;4.47;;;28.70;43.80;;;;;;4996853;28;20741;-62
2023/06/21 11:54:32;;;;;;;8.93;5.10;;;28.70;44.60;;;;;;4998959;28;20056;-62
2023/06/21 11:56:59;;;;;;;4.70;3.92;;;28.70;44.10;;;;;;5000626;28;20065;-61
2023/06/21 11:59:26;;;;;;;4.57;4.13;;;28.80;44.40;;;;;;4997627;28;20058;-63
2023/06/21 12:01:54;;;;;;;5.38;4.32;;;28.90;44.10;;;;;;4997125;28;20445;-62
2023/06/21 12:04:25;;;;;;;9.70;4.80;;;28.90;44.30;;;;;;4996134;28;20053;-62
2023/06/21 12:06:55;;;;;;;10.45;4.97;;;28.90;43.30;;;;;;4995607;28;20168;-64
2023/06/21 12:09:22;;;;;;;5.70;4.63;;;29.00;42.50;;;;;;4998163;28;20565;-60
2023/06/21 12:11:50;;;;;;;7.40;4.90;;;29.00;43.10;;;;;;4997593;28;20137;-63
2023/06/21 12:14:19;;;;;;;6.35;5.38;;;29.00;42.30;;;;;;5000189;28;20061;-62
2023/06/21 12:16:50;;;;;;;6.53;5.30;;;29.00;42.70;;;;;;4996393;28;20053;-65
2023/06/21 12:19:21;;;;;;;9.18;5.53;;;28.90;43.70;;;;;;4998160;28;20497;-64
2023/06/21 12:21:48;;;;;;;9.70;5.70;;;28.80;44.30;;;;;;4997760;28;20062;-60
2023/06/21 12:24:26;;;;;;;10.93;6.80;;;28.70;44.90;;;;;;4999667;28;20077;-59
2023/06/21 12:26:55;;;;;;;14.10;6.75;;;28.70;45.40;;;;;;4999159;28;20054;-63
2023/06/21 12:29:23;;;;;;;7.88;6.10;;;28.60;45.50;;;;;;5001005;28;20494;-61
2023/06/21 12:31:50;;;;;;;10.70;6.93;;;28.60;45.40;;;;;;4998193;28;20057;-63
2023/06/21 12:34:18;;;;;;;8.38;6.50;;;28.60;45.50;;;;;;4998990;28;20088;-64
2023/06/21 12:36:46;;;;;;;13.73;6.43;;;28.50;45.00;;;;;;5001531;28;20057;-63
2023/06/21 12:39:14;;;;;;;10.10;6.20;;;28.50;45.20;;;;;;5003467;28;20050;-68
2023/06/21 12:41:44;;;;;;;6.47;5.60;;;28.50;44.90;;;;;;5002809;28;21219;-59
2023/06/21 12:44:19;;;;;;;9.50;6.40;;;28.50;45.10;;;;;;5003886;28;20073;-59
2023/06/21 12:46:47;;;;;;;7.93;6.00;;;28.50;44.90;;;;;;5004179;28;20054;-59
2023/06/21 12:49:15;;;;;;;8.65;6.57;;;28.50;45.30;;;;;;5004332;28;20061;-60
2023/06/21 12:51:42;;;;;;;10.30;6.60;;;28.50;45.50;;;;;;4999394;28;20053;-57
2023/06/21 12:54:12;;;;;;;11.60;6.10;;;28.60;45.20;;;;;;5002308;28;20054;-59